Time;durP1;ratioP1;P1;durP2;ratioP2;P2;SDS_P1;SDS_P2;PMS_P1;PMS_P2;Temp;Humidity;BMP_temperature;BMP_pressure;BME280_temperature;BME280_humidity;BME280_pressure;Samples;Min_cycle;Max_cycle;Signal;HPM_P1;HPM_P2
2021/12/17 00:07:20;;;;;;;12.80;8.50;;;7.20;99.90;;;;;;5069612;28;20967;-61
2021/12/17 00:09:47;;;;;;;13.93;10.00;;;7.20;99.90;;;;;;5069710;28;20925;-60
2021/12/17 00:12:17;;;;;;;13.67;9.00;;;7.20;99.90;;;;;;5083614;28;20525;-63
2021/12/17 00:14:47;;;;;;;13.10;9.73;;;7.30;99.90;;;;;;5088413;28;20526;-61
2021/12/17 00:17:16;;;;;;;14.33;9.63;;;7.30;99.90;;;;;;5088659;28;20451;-62
2021/12/17 00:20:49;;;;;;;15.33;9.20;;;7.20;99.90;;;;;;5082137;28;20477;-61
2021/12/17 00:52:35;;;;;;;13.20;10.03;;;7.20;99.90;;;;;;5081480;28;20455;-61
2021/12/17 00:55:03;;;;;;;18.80;10.50;;;7.10;99.90;;;;;;5069366;28;20440;-60
2021/12/17 00:57:35;;;;;;;17.40;11.00;;;7.20;99.90;;;;;;5076917;28;20506;-60
2021/12/17 01:00:06;;;;;;;17.70;10.40;;;7.20;99.90;;;;;;5052218;28;20454;-62
2021/12/17 01:02:34;;;;;;;19.03;11.40;;;7.20;99.90;;;;;;5077614;28;21453;-62
2021/12/17 01:05:05;;;;;;;20.80;11.20;;;7.20;99.90;;;;;;5071442;28;20442;-62
2021/12/17 01:07:34;;;;;;;13.25;9.30;;;7.30;99.90;;;;;;5068417;28;20491;-60
2021/12/17 01:10:00;;;;;;;20.57;11.47;;;7.20;99.90;;;;;;5082185;28;20223;-60
2021/12/17 01:12:26;;;;;;;16.43;10.90;;;7.20;99.90;;;;;;5072688;28;20645;-61
2021/12/17 01:14:53;;;;;;;13.57;9.87;;;7.20;99.90;;;;;;5069086;28;20485;-61
2021/12/17 01:17:22;;;;;;;17.10;10.73;;;7.20;99.90;;;;;;5068672;28;20303;-60
2021/12/17 01:23:02;;;;;;;17.67;10.60;;;7.20;99.90;;;;;;5070673;28;20786;-61
2021/12/17 01:35:21;;;;;;;15.90;10.53;;;7.20;99.90;;;;;;5080183;28;20956;-61
2021/12/17 01:36:25;;;;;;;16.10;9.73;;;7.20;99.90;;;;;;5081885;28;20439;-62
2021/12/17 01:43:51;;;;;;;17.57;11.20;;;7.30;99.90;;;;;;5074384;28;21283;-61
2021/12/17 01:46:24;;;;;;;16.03;11.33;;;7.30;99.90;;;;;;5069472;28;20436;-61
2021/12/17 01:59:48;;;;;;;18.30;10.40;;;7.30;99.90;;;;;;5074826;28;20498;-61
2021/12/17 02:02:14;;;;;;;19.90;11.00;;;7.40;99.90;;;;;;5079489;28;20411;-61
2021/12/17 02:04:40;;;;;;;17.50;11.27;;;7.30;99.90;;;;;;5060608;28;20873;-61
2021/12/17 02:07:06;;;;;;;17.33;10.30;;;7.30;99.90;;;;;;5074916;28;20515;-61
2021/12/17 02:28:57;;;;;;;19.40;11.30;;;7.40;99.90;;;;;;5078170;28;20443;-61
2021/12/17 02:31:26;;;;;;;18.07;11.30;;;7.40;99.90;;;;;;5053502;28;20769;-62
2021/12/17 02:33:54;;;;;;;19.90;12.90;;;7.40;99.90;;;;;;5079258;28;20442;-60
2021/12/17 02:36:24;;;;;;;18.50;12.00;;;7.40;99.90;;;;;;5079393;28;20458;-61
2021/12/17 02:38:53;;;;;;;22.60;12.70;;;7.40;99.90;;;;;;5081820;28;20446;-60
2021/12/17 02:46:46;;;;;;;22.10;12.73;;;7.20;99.90;;;;;;5063423;28;20512;-63
2021/12/17 02:49:12;;;;;;;18.87;11.67;;;7.20;99.90;;;;;;5080258;28;20443;-61
2021/12/17 02:51:40;;;;;;;25.00;12.20;;;7.20;99.90;;;;;;5071669;28;20228;-61
2021/12/17 02:54:06;;;;;;;21.57;12.23;;;7.20;99.90;;;;;;5082184;28;20435;-61
2021/12/17 02:56:32;;;;;;;19.07;11.70;;;7.20;99.90;;;;;;5074519;28;20411;-59
2021/12/17 02:58:58;;;;;;;23.10;13.10;;;7.20;99.90;;;;;;5078719;28;20446;-61
2021/12/17 03:01:24;;;;;;;21.80;12.90;;;7.20;99.90;;;;;;5070680;28;20227;-62
2021/12/17 03:03:52;;;;;;;22.30;12.40;;;7.10;99.90;;;;;;5081091;28;20435;-61
2021/12/17 03:06:19;;;;;;;20.60;13.20;;;7.10;99.90;;;;;;5081066;28;20834;-60
2021/12/17 03:08:47;;;;;;;23.53;12.70;;;7.10;99.90;;;;;;5082610;28;20451;-62
2021/12/17 03:11:13;;;;;;;19.17;13.10;;;7.10;99.90;;;;;;5071053;28;20428;-61
2021/12/17 03:13:39;;;;;;;23.50;12.63;;;7.00;99.90;;;;;;5079767;28;20459;-60
2021/12/17 03:23:50;;;;;;;21.40;12.27;;;7.10;99.90;;;;;;5067050;28;20435;-61
2021/12/17 03:26:25;;;;;;;18.63;12.33;;;7.20;99.90;;;;;;5072315;28;20436;-61
2021/12/17 03:28:56;;;;;;;20.20;12.50;;;7.20;99.90;;;;;;5071525;28;20526;-61
2021/12/17 03:31:22;;;;;;;21.90;13.20;;;7.20;99.90;;;;;;5077458;28;20478;-60
2021/12/17 03:33:51;;;;;;;23.60;12.60;;;7.20;99.90;;;;;;5076181;28;20431;-61
2021/12/17 03:36:19;;;;;;;20.37;13.00;;;7.20;99.90;;;;;;5068538;28;20416;-61
2021/12/17 03:38:47;;;;;;;22.87;14.37;;;7.20;99.90;;;;;;5079802;28;20456;-62
2021/12/17 03:41:23;;;;;;;20.27;13.07;;;7.10;99.90;;;;;;5076114;28;20732;-61
2021/12/17 03:43:50;;;;;;;26.83;13.23;;;7.10;99.90;;;;;;5068863;28;20430;-62
2021/12/17 03:46:17;;;;;;;21.75;13.25;;;7.10;99.90;;;;;;5064041;28;20444;-62
2021/12/17 03:48:43;;;;;;;22.13;12.87;;;7.00;99.90;;;;;;5074369;28;20236;-60
2021/12/17 03:51:15;;;;;;;20.02;12.60;;;7.00;99.90;;;;;;5070364;28;20556;-61
2021/12/17 03:53:44;;;;;;;22.00;13.93;;;7.00;99.90;;;;;;5070637;28;20178;-61
2021/12/17 03:56:10;;;;;;;23.60;13.98;;;6.90;99.90;;;;;;5070068;28;21360;-61
2021/12/17 03:58:36;;;;;;;28.73;12.60;;;6.90;99.90;;;;;;5071008;28;20536;-61
2021/12/17 04:01:02;;;;;;;22.80;12.50;;;6.90;99.90;;;;;;5077829;28;20462;-60
2021/12/17 04:03:28;;;;;;;22.60;13.83;;;6.90;99.90;;;;;;5073236;28;20254;-61
2021/12/17 04:05:53;;;;;;;23.23;12.93;;;6.90;99.90;;;;;;5068861;28;20435;-60
2021/12/17 04:08:19;;;;;;;21.07;13.10;;;6.90;99.90;;;;;;5081663;28;20213;-62
2021/12/17 04:10:48;;;;;;;20.87;12.93;;;6.90;99.90;;;;;;5075657;28;20185;-61
2021/12/17 04:15:56;;;;;;;22.13;13.70;;;6.80;99.90;;;;;;5069864;28;20714;-61
2021/12/17 04:18:22;;;;;;;28.90;13.77;;;6.80;99.90;;;;;;5080961;28;20457;-61
2021/12/17 04:20:47;;;;;;;22.47;12.57;;;6.80;99.90;;;;;;5076217;28;20771;-60
2021/12/17 04:23:13;;;;;;;20.37;12.10;;;6.80;99.90;;;;;;5066492;28;20185;-60
2021/12/17 04:25:39;;;;;;;22.57;13.70;;;6.80;99.90;;;;;;5076993;28;20227;-60
2021/12/17 04:28:04;;;;;;;25.07;13.73;;;6.80;99.90;;;;;;5078916;28;20466;-61
2021/12/17 04:30:31;;;;;;;22.07;14.07;;;6.80;99.90;;;;;;5067106;28;20285;-61
2021/12/17 04:32:57;;;;;;;23.52;13.38;;;6.80;99.90;;;;;;5082081;28;20201;-61
2021/12/17 04:35:23;;;;;;;21.77;14.40;;;6.80;99.90;;;;;;5080917;28;20535;-61
2021/12/17 04:37:48;;;;;;;24.80;13.20;;;6.80;99.90;;;;;;5071843;28;20191;-61
2021/12/17 04:40:14;;;;;;;25.13;14.67;;;6.60;99.90;;;;;;5069674;28;20780;-62
2021/12/17 04:45:18;;;;;;;27.13;16.45;;;6.60;99.90;;;;;;5077100;28;20177;-60
2021/12/17 04:58:40;;;;;;;25.15;14.70;;;6.50;99.90;;;;;;5075977;28;20439;-61
2021/12/17 05:01:12;;;;;;;26.47;14.60;;;6.50;99.90;;;;;;5076298;28;20707;-61
2021/12/17 05:03:37;;;;;;;22.73;13.63;;;6.50;99.90;;;;;;5073136;28;20181;-61
2021/12/17 05:06:03;;;;;;;25.90;15.30;;;6.50;99.90;;;;;;5076150;28;20786;-60
2021/12/17 05:08:29;;;;;;;23.50;14.47;;;6.50;99.90;;;;;;5071920;28;20198;-61
2021/12/17 05:19:28;;;;;;;26.42;13.70;;;6.50;99.90;;;;;;5045999;28;20185;-59
2021/12/17 05:21:53;;;;;;;24.30;13.75;;;6.40;99.90;;;;;;5056560;28;20174;-61
2021/12/17 05:24:19;;;;;;;24.83;12.93;;;6.50;99.90;;;;;;5046822;28;20197;-61
2021/12/17 05:26:45;;;;;;;22.33;13.13;;;6.40;99.90;;;;;;5056984;28;20275;-62
2021/12/17 05:29:10;;;;;;;24.53;13.30;;;6.40;99.90;;;;;;5045837;28;20219;-58
2021/12/17 05:31:36;;;;;;;23.30;13.60;;;6.40;99.90;;;;;;5052327;28;20196;-60
2021/12/17 05:34:01;;;;;;;26.03;14.70;;;6.40;99.90;;;;;;5042738;28;20186;-60
2021/12/17 05:36:27;;;;;;;21.67;14.20;;;6.40;99.90;;;;;;5057147;28;20178;-60
2021/12/17 05:38:52;;;;;;;24.47;14.57;;;6.30;99.90;;;;;;5041482;28;20197;-59
2021/12/17 05:41:18;;;;;;;22.90;12.93;;;6.30;99.90;;;;;;5059111;28;20182;-60
2021/12/17 05:43:44;;;;;;;26.03;15.07;;;6.30;99.90;;;;;;5072563;28;20631;-59
2021/12/17 05:46:23;;;;;;;25.20;14.87;;;6.30;99.90;;;;;;5077640;28;20254;-59
2021/12/17 05:48:48;;;;;;;23.73;14.50;;;6.30;99.90;;;;;;5069179;28;20471;-60
2021/12/17 05:51:14;;;;;;;32.60;14.23;;;6.30;99.90;;;;;;5068499;28;20237;-60
2021/12/17 05:53:39;;;;;;;26.00;15.77;;;6.40;99.90;;;;;;5068836;28;20551;-60
2021/12/17 05:56:05;;;;;;;23.90;14.70;;;6.40;99.90;;;;;;5069371;28;20190;-60
2021/12/17 05:58:31;;;;;;;26.70;14.80;;;6.40;99.90;;;;;;5078077;28;20174;-60
2021/12/17 06:00:57;;;;;;;22.90;14.30;;;6.30;99.90;;;;;;5070994;28;20363;-60
2021/12/17 06:03:23;;;;;;;25.88;12.82;;;6.30;99.90;;;;;;5068394;28;20272;-59
2021/12/17 06:05:49;;;;;;;25.67;14.38;;;6.20;99.90;;;;;;5066684;28;20196;-60
2021/12/17 06:08:15;;;;;;;20.80;12.65;;;6.30;99.90;;;;;;5068590;28;20197;-60
2021/12/17 06:10:41;;;;;;;22.07;13.30;;;6.30;99.90;;;;;;5068548;28;20214;-60
2021/12/17 06:13:06;;;;;;;26.13;12.60;;;6.20;99.90;;;;;;5068761;28;20197;-60
2021/12/17 06:15:32;;;;;;;28.40;14.10;;;6.20;99.90;;;;;;5080059;28;20528;-61
2021/12/17 06:17:57;;;;;;;26.83;13.67;;;6.20;99.90;;;;;;5069544;28;20181;-60
2021/12/17 06:20:24;;;;;;;21.67;12.37;;;6.20;99.90;;;;;;5067055;28;20181;-60
2021/12/17 06:22:51;;;;;;;25.67;15.30;;;6.20;99.90;;;;;;5069779;28;20613;-60
2021/12/17 06:25:17;;;;;;;27.38;13.77;;;6.10;99.90;;;;;;5071823;28;20212;-60
2021/12/17 06:27:43;;;;;;;25.67;14.93;;;6.10;99.90;;;;;;5057955;28;20233;-60
2021/12/17 06:30:11;;;;;;;27.27;15.35;;;6.10;99.90;;;;;;5059054;28;20340;-60
2021/12/17 06:32:37;;;;;;;24.95;15.05;;;6.10;99.90;;;;;;5071150;28;20190;-60
2021/12/17 06:35:05;;;;;;;25.30;14.77;;;6.00;99.90;;;;;;5071455;28;20182;-60
2021/12/17 06:37:30;;;;;;;28.73;17.75;;;6.00;99.90;;;;;;5070829;28;20196;-60
2021/12/17 06:39:58;;;;;;;26.07;16.17;;;5.90;99.90;;;;;;5071548;28;20178;-61
2021/12/17 06:42:26;;;;;;;26.30;14.90;;;5.90;99.90;;;;;;5076513;28;20242;-60
2021/12/17 06:44:54;;;;;;;28.35;16.02;;;5.90;99.90;;;;;;5075676;28;20185;-55
2021/12/17 06:47:29;;;;;;;33.63;17.15;;;5.90;99.90;;;;;;5063628;28;20220;-60
2021/12/17 07:10:48;;;;;;;27.25;16.02;;;5.80;99.90;;;;;;5070484;28;20554;-60
2021/12/17 07:21:53;;;;;;;33.63;17.30;;;5.90;99.90;;;;;;5067382;28;20197;-60
2021/12/17 07:31:35;;;;;;;27.83;14.82;;;5.80;99.90;;;;;;5065746;28;20177;-60
2021/12/17 07:33:02;;;;;;;32.75;16.55;;;5.80;99.90;;;;;;5069576;28;20190;-60
2021/12/17 07:35:40;;;;;;;30.70;16.17;;;5.70;99.90;;;;;;5067442;28;20253;-60
2021/12/17 07:40:51;;;;;;;33.38;16.88;;;5.70;99.90;;;;;;5074506;28;20265;-61
2021/12/17 07:43:24;;;;;;;29.55;17.33;;;5.60;99.90;;;;;;5054941;28;20190;-60
2021/12/17 07:45:50;;;;;;;30.23;14.98;;;5.70;99.90;;;;;;5045777;28;20177;-61
2021/12/17 07:48:16;;;;;;;30.40;14.35;;;5.70;99.90;;;;;;5069089;28;20243;-60
2021/12/17 07:50:42;;;;;;;29.57;15.87;;;5.70;99.90;;;;;;5069588;28;20237;-60
2021/12/17 07:53:08;;;;;;;31.07;15.83;;;5.70;99.90;;;;;;5059831;28;20178;-61
2021/12/17 07:55:34;;;;;;;28.15;15.40;;;5.70;99.90;;;;;;5072049;28;20201;-61
2021/12/17 07:57:59;;;;;;;28.13;15.57;;;5.70;99.90;;;;;;5069322;28;20205;-61
2021/12/17 08:00:26;;;;;;;28.10;16.10;;;5.70;99.90;;;;;;5069872;28;20525;-61
2021/12/17 08:02:51;;;;;;;26.35;15.23;;;5.80;99.90;;;;;;5069073;28;20217;-60
2021/12/17 08:05:18;;;;;;;26.97;14.87;;;5.90;99.90;;;;;;5069088;28;20213;-59
2021/12/17 08:07:44;;;;;;;29.90;15.60;;;5.80;99.90;;;;;;5072860;28;20292;-59
2021/12/17 08:10:10;;;;;;;25.90;14.30;;;5.80;99.90;;;;;;5075474;28;20261;-60
2021/12/17 08:12:36;;;;;;;27.57;14.70;;;5.70;99.90;;;;;;5072410;28;20279;-60
2021/12/17 08:15:05;;;;;;;30.05;15.07;;;5.80;99.90;;;;;;5077837;28;20288;-60
2021/12/17 08:26:04;;;;;;;33.13;15.75;;;5.70;99.90;;;;;;5064163;28;20220;-60
2021/12/17 08:28:49;;;;;;;38.20;16.25;;;5.60;99.90;;;;;;5053342;28;21789;-60
2021/12/17 08:31:15;;;;;;;30.13;14.88;;;5.70;99.90;;;;;;5063103;28;20181;-60
2021/12/17 08:33:40;;;;;;;30.27;15.30;;;5.70;99.90;;;;;;5071128;28;20565;-61
2021/12/17 08:36:06;;;;;;;25.60;15.67;;;5.80;99.90;;;;;;5070379;28;20188;-60
2021/12/17 08:38:31;;;;;;;27.20;13.80;;;5.80;99.90;;;;;;5068508;28;20192;-60
2021/12/17 08:40:59;;;;;;;24.90;13.87;;;5.80;99.90;;;;;;5068748;28;20185;-54
2021/12/17 08:43:25;;;;;;;26.90;15.65;;;5.70;99.90;;;;;;5068226;28;20659;-60
2021/12/17 08:45:51;;;;;;;27.90;15.00;;;5.70;99.90;;;;;;5063945;28;20213;-60
2021/12/17 08:48:16;;;;;;;27.77;15.20;;;5.80;99.90;;;;;;5067790;28;20206;-60
2021/12/17 08:50:42;;;;;;;24.40;15.13;;;5.80;99.90;;;;;;5072154;28;20490;-60
2021/12/17 08:53:08;;;;;;;25.83;13.63;;;5.70;99.90;;;;;;5066834;28;20662;-57
2021/12/17 08:55:33;;;;;;;29.10;15.07;;;5.80;99.90;;;;;;5067848;28;20173;-60
2021/12/17 08:57:59;;;;;;;27.73;14.97;;;5.70;99.90;;;;;;5059038;28;20552;-61
2021/12/17 09:00:24;;;;;;;24.30;14.00;;;5.70;99.90;;;;;;5068743;28;20243;-60
2021/12/17 09:02:51;;;;;;;22.87;13.30;;;5.80;99.90;;;;;;5069118;28;20185;-61
2021/12/17 09:05:17;;;;;;;24.58;13.73;;;5.70;99.90;;;;;;5067798;28;20189;-60
2021/12/17 09:07:44;;;;;;;26.38;13.10;;;5.70;99.90;;;;;;5069019;28;20190;-60
2021/12/17 09:10:11;;;;;;;26.42;13.85;;;5.80;99.90;;;;;;5069700;28;20182;-59
2021/12/17 09:12:39;;;;;;;28.55;13.98;;;5.70;99.90;;;;;;5064301;28;20253;-60
2021/12/17 09:15:05;;;;;;;25.83;13.43;;;5.70;99.90;;;;;;5068423;28;20221;-60
2021/12/17 09:17:30;;;;;;;24.13;12.77;;;5.80;99.90;;;;;;5067367;28;20180;-60
2021/12/17 09:19:56;;;;;;;26.53;13.43;;;5.70;99.90;;;;;;5061427;28;20273;-60
2021/12/17 09:22:22;;;;;;;23.60;13.70;;;5.70;99.90;;;;;;5071633;28;20514;-61
2021/12/17 09:24:47;;;;;;;27.27;14.50;;;5.70;99.90;;;;;;5084727;28;20654;-61
2021/12/17 09:27:13;;;;;;;25.00;13.80;;;5.70;99.90;;;;;;5068455;28;20223;-60
2021/12/17 09:29:38;;;;;;;28.90;14.83;;;5.70;99.90;;;;;;5065562;28;20170;-60
2021/12/17 09:32:04;;;;;;;22.47;13.13;;;5.60;99.90;;;;;;5068263;28;20269;-60
2021/12/17 09:34:30;;;;;;;27.43;13.30;;;5.70;99.90;;;;;;5068853;28;20280;-60
2021/12/17 09:36:55;;;;;;;29.47;14.67;;;5.70;99.90;;;;;;5067390;28;20192;-54
2021/12/17 09:39:22;;;;;;;23.87;13.27;;;5.70;99.90;;;;;;5067976;28;20178;-61
2021/12/17 09:41:50;;;;;;;27.77;15.38;;;5.60;99.90;;;;;;5067441;28;20639;-61
2021/12/17 09:44:17;;;;;;;34.20;14.80;;;5.70;99.90;;;;;;5067906;28;20178;-60
2021/12/17 09:46:46;;;;;;;35.08;16.10;;;5.70;99.90;;;;;;5068872;28;20180;-60
2021/12/17 09:49:12;;;;;;;24.35;14.63;;;5.70;99.90;;;;;;5063956;28;20185;-61
2021/12/17 09:51:38;;;;;;;26.90;13.90;;;5.80;99.90;;;;;;5065788;28;20595;-61
2021/12/17 09:54:03;;;;;;;28.00;14.98;;;5.70;99.90;;;;;;5066275;28;20241;-60
2021/12/17 09:56:29;;;;;;;25.70;15.60;;;5.80;99.90;;;;;;5067761;28;20259;-60
2021/12/17 09:58:55;;;;;;;29.25;14.93;;;5.80;99.90;;;;;;5069331;28;20319;-61
2021/12/17 10:01:21;;;;;;;25.70;13.45;;;5.80;99.90;;;;;;5070011;28;20178;-60
2021/12/17 10:04:24;;;;;;;24.63;13.57;;;5.90;99.90;;;;;;5073788;28;20196;-61
2021/12/17 10:06:50;;;;;;;28.83;14.50;;;5.80;99.90;;;;;;5071179;28;20412;-61
2021/12/17 10:09:17;;;;;;;23.75;13.40;;;5.90;99.90;;;;;;5070364;28;20761;-61
2021/12/17 10:12:06;;;;;;;29.48;16.13;;;6.00;99.90;;;;;;5071148;28;20185;-61
2021/12/17 10:14:32;;;;;;;29.45;13.70;;;6.00;99.90;;;;;;5072750;28;20608;-60
2021/12/17 10:17:12;;;;;;;22.90;13.45;;;6.00;99.90;;;;;;5071043;28;20255;-57
2021/12/17 10:19:47;;;;;;;28.98;14.75;;;5.90;99.90;;;;;;5067857;28;20181;-61
2021/12/17 10:22:16;;;;;;;24.00;13.60;;;5.90;99.90;;;;;;5070450;28;20192;-61
2021/12/17 10:24:44;;;;;;;26.25;15.93;;;5.90;99.90;;;;;;5069943;28;20879;-61
2021/12/17 10:27:21;;;;;;;28.98;15.07;;;5.90;99.90;;;;;;5071326;28;20586;-61
2021/12/17 10:29:47;;;;;;;30.08;14.10;;;6.00;99.90;;;;;;5070067;28;20195;-61
2021/12/17 10:32:20;;;;;;;29.47;15.30;;;5.90;99.90;;;;;;5071250;28;20256;-61
2021/12/17 10:35:07;;;;;;;21.40;13.82;;;6.00;99.90;;;;;;5070908;28;20473;-61
2021/12/17 10:37:41;;;;;;;26.30;15.13;;;6.10;99.90;;;;;;5070289;28;20173;-61
2021/12/17 10:40:19;;;;;;;27.20;14.55;;;6.10;99.90;;;;;;5053281;28;20192;-61
2021/12/17 10:42:55;;;;;;;29.45;14.70;;;6.20;99.90;;;;;;5090162;28;20209;-62
2021/12/17 10:45:27;;;;;;;30.67;14.93;;;6.10;99.90;;;;;;5085520;28;20166;-61
2021/12/17 10:48:24;;;;;;;24.52;13.52;;;6.20;99.90;;;;;;5071193;28;20201;-61
2021/12/17 10:50:53;;;;;;;30.52;14.98;;;6.10;99.90;;;;;;5069159;28;20224;-62
2021/12/17 10:53:24;;;;;;;26.73;14.48;;;6.10;99.90;;;;;;5085794;28;20197;-60
2021/12/17 10:55:50;;;;;;;20.35;13.20;;;6.10;99.90;;;;;;5090499;28;20170;-61
2021/12/17 10:58:15;;;;;;;25.55;14.57;;;6.10;99.90;;;;;;5072417;28;20177;-60
2021/12/17 11:00:56;;;;;;;22.30;12.77;;;6.10;99.90;;;;;;5090570;28;20222;-57
2021/12/17 11:03:22;;;;;;;25.08;13.70;;;6.10;99.90;;;;;;5081145;28;20274;-60
2021/12/17 11:05:48;;;;;;;23.38;13.15;;;6.10;99.90;;;;;;5070392;28;20686;-60
2021/12/17 11:08:30;;;;;;;27.45;13.25;;;6.10;99.90;;;;;;5069789;28;20201;-59
2021/12/17 11:11:05;;;;;;;24.40;12.48;;;6.10;99.90;;;;;;5065922;28;20178;-61
2021/12/17 11:13:30;;;;;;;25.23;13.57;;;6.10;99.90;;;;;;5063565;28;20260;-61
2021/12/17 11:15:56;;;;;;;22.93;12.93;;;6.10;99.90;;;;;;5070790;28;20272;-60
2021/12/17 11:18:24;;;;;;;27.30;14.27;;;6.00;99.90;;;;;;5062923;28;20194;-60
2021/12/17 11:20:52;;;;;;;25.15;13.13;;;6.10;99.90;;;;;;5061875;28;20639;-60
2021/12/17 11:23:18;;;;;;;20.42;11.70;;;6.10;99.90;;;;;;5070142;28;20209;-60
2021/12/17 11:25:49;;;;;;;21.70;12.95;;;6.10;99.90;;;;;;5076778;28;20184;-59
2021/12/17 11:28:15;;;;;;;22.25;11.45;;;6.10;99.90;;;;;;5070046;28;20193;-60
2021/12/17 11:30:45;;;;;;;22.50;12.17;;;6.20;99.90;;;;;;5070118;28;20185;-55
2021/12/17 11:33:12;;;;;;;22.00;11.43;;;6.20;99.90;;;;;;5069039;28;20432;-59
2021/12/17 11:35:42;;;;;;;20.33;12.02;;;6.20;99.90;;;;;;5070617;28;20181;-61
2021/12/17 11:38:19;;;;;;;19.35;11.80;;;6.20;99.90;;;;;;5070001;28;20238;-61
2021/12/17 11:40:52;;;;;;;23.88;11.63;;;6.30;99.90;;;;;;5069924;28;20188;-61
2021/12/17 11:43:52;;;;;;;21.20;10.73;;;6.20;99.90;;;;;;5070679;28;20548;-60
2021/12/17 11:46:23;;;;;;;18.05;10.85;;;6.30;99.90;;;;;;5071059;28;20181;-60
2021/12/17 11:48:52;;;;;;;20.08;10.95;;;6.30;99.90;;;;;;5073634;28;20236;-61
2021/12/17 11:51:23;;;;;;;16.90;11.13;;;6.40;99.90;;;;;;5069440;28;20236;-61
2021/12/17 11:53:58;;;;;;;24.83;11.73;;;6.40;99.90;;;;;;5069495;28;20273;-61
2021/12/17 11:56:44;;;;;;;21.58;11.40;;;6.40;99.90;;;;;;5073210;28;20684;-61
2021/12/17 11:59:32;;;;;;;20.17;11.88;;;6.40;99.90;;;;;;5069428;28;20201;-61
2021/12/17 12:02:23;;;;;;;19.65;12.20;;;6.40;99.90;;;;;;5069574;28;20184;-61
2021/12/17 12:05:04;;;;;;;18.90;12.05;;;6.50;99.90;;;;;;5069436;28;20169;-60
2021/12/17 12:07:29;;;;;;;19.08;11.27;;;6.50;99.90;;;;;;5068614;28;20331;-61
2021/12/17 12:10:08;;;;;;;17.37;10.67;;;6.50;99.90;;;;;;5069364;28;20622;-61
2021/12/17 12:12:34;;;;;;;22.08;12.50;;;6.50;99.90;;;;;;5069552;28;20158;-61
2021/12/17 12:15:23;;;;;;;18.83;11.10;;;6.50;99.90;;;;;;5068429;28;20197;-61
2021/12/17 12:17:57;;;;;;;19.43;11.40;;;6.50;99.90;;;;;;5049330;28;20197;-61
2021/12/17 12:20:45;;;;;;;23.52;12.40;;;6.50;99.90;;;;;;5061599;28;20509;-61
2021/12/17 12:23:38;;;;;;;25.48;12.60;;;6.40;99.90;;;;;;5070083;28;20186;-61
2021/12/17 12:26:03;;;;;;;20.17;12.02;;;6.50;99.90;;;;;;5063181;28;20199;-60
2021/12/17 12:28:44;;;;;;;23.30;12.97;;;6.50;99.90;;;;;;5062115;28;20265;-59
2021/12/17 12:31:10;;;;;;;21.25;12.07;;;6.40;99.90;;;;;;5068772;28;20174;-61
2021/12/17 12:33:35;;;;;;;22.93;12.73;;;6.40;99.90;;;;;;5066465;28;20267;-61
2021/12/17 12:36:01;;;;;;;24.73;12.80;;;6.40;99.90;;;;;;5070243;28;20190;-59
2021/12/17 12:38:31;;;;;;;19.33;12.67;;;6.50;99.90;;;;;;5068999;28;20646;-61
2021/12/17 12:40:58;;;;;;;20.45;11.25;;;6.50;99.90;;;;;;5068401;28;20174;-61
2021/12/17 12:43:29;;;;;;;21.08;12.98;;;6.50;99.90;;;;;;5070301;28;20623;-61
2021/12/17 12:45:55;;;;;;;20.63;11.67;;;6.60;99.90;;;;;;5071837;28;20598;-61
2021/12/17 12:48:32;;;;;;;20.57;12.70;;;6.60;99.90;;;;;;5067155;28;20542;-61
2021/12/17 12:51:17;;;;;;;22.50;12.02;;;6.60;99.90;;;;;;5068747;28;20221;-61
2021/12/17 12:53:56;;;;;;;18.38;11.48;;;6.60;99.90;;;;;;5066683;28;20268;-61
2021/12/17 12:56:22;;;;;;;23.40;12.15;;;6.60;99.90;;;;;;5062332;28;20168;-62
2021/12/17 12:58:48;;;;;;;19.20;11.73;;;6.60;99.90;;;;;;5055920;28;20292;-62
2021/12/17 13:01:16;;;;;;;19.83;12.75;;;6.60;99.90;;;;;;5067876;28;20429;-62
2021/12/17 13:03:44;;;;;;;22.00;11.60;;;6.60;99.90;;;;;;5068930;28;20249;-61
2021/12/17 13:06:16;;;;;;;19.65;11.85;;;6.60;99.90;;;;;;5067980;28;20231;-62
2021/12/17 13:08:42;;;;;;;21.85;11.38;;;6.60;99.90;;;;;;5068732;28;20190;-60
2021/12/17 13:11:07;;;;;;;17.80;11.50;;;6.60;99.90;;;;;;5068380;28;20635;-62
2021/12/17 13:13:57;;;;;;;20.13;12.43;;;6.60;99.90;;;;;;5082087;28;20197;-62
2021/12/17 13:21:45;;;;;;;20.35;11.18;;;6.50;99.90;;;;;;5067745;28;20192;-61
2021/12/17 13:24:18;;;;;;;19.20;11.00;;;6.40;99.90;;;;;;5073550;28;20235;-60
2021/12/17 13:26:56;;;;;;;18.73;11.95;;;6.50;99.90;;;;;;5063567;28;20227;-62
2021/12/17 13:29:31;;;;;;;19.30;10.80;;;6.50;99.90;;;;;;5067713;28;20173;-60
2021/12/17 13:32:01;;;;;;;20.92;11.77;;;6.60;99.90;;;;;;5058937;28;20181;-61
2021/12/17 13:34:35;;;;;;;27.45;12.00;;;6.50;99.90;;;;;;5076253;28;20788;-61
2021/12/17 13:37:16;;;;;;;19.10;12.05;;;6.40;99.90;;;;;;5071843;28;20169;-61
2021/12/17 13:40:02;;;;;;;19.15;11.95;;;6.40;99.90;;;;;;5072489;28;20177;-62
2021/12/17 13:42:31;;;;;;;19.73;11.40;;;6.40;99.90;;;;;;5071375;28;20181;-61
2021/12/17 13:44:59;;;;;;;24.95;13.00;;;6.40;99.90;;;;;;5072358;28;20858;-61
2021/12/17 13:47:34;;;;;;;22.40;12.70;;;6.50;99.90;;;;;;5066243;28;20216;-62
2021/12/17 13:50:24;;;;;;;24.52;13.20;;;6.50;99.90;;;;;;5083401;28;20235;-61
2021/12/17 13:52:58;;;;;;;24.02;13.20;;;6.40;99.90;;;;;;5070658;28;20174;-61
2021/12/17 13:55:28;;;;;;;26.60;14.13;;;6.40;99.90;;;;;;5071229;28;20631;-61
2021/12/17 13:57:56;;;;;;;19.95;12.95;;;6.40;99.90;;;;;;5072164;28;20403;-62
2021/12/17 14:00:24;;;;;;;25.25;14.73;;;6.40;99.90;;;;;;5071232;28;20169;-62
2021/12/17 14:02:54;;;;;;;25.05;13.77;;;6.40;99.90;;;;;;5072187;28;20181;-62
2021/12/17 14:05:28;;;;;;;26.00;14.65;;;6.40;99.90;;;;;;5058023;28;20197;-61
2021/12/17 14:07:59;;;;;;;26.15;13.80;;;6.50;99.90;;;;;;5043752;28;20572;-60
2021/12/17 14:10:31;;;;;;;23.15;14.80;;;6.50;99.90;;;;;;5044696;28;20178;-60
2021/12/17 14:12:57;;;;;;;26.75;14.63;;;6.50;99.90;;;;;;5043794;28;20206;-60
2021/12/17 14:15:29;;;;;;;23.52;14.95;;;6.50;99.90;;;;;;5045379;28;20187;-61
2021/12/17 14:18:07;;;;;;;22.70;14.23;;;6.50;99.90;;;;;;5048487;28;20192;-61
2021/12/17 14:20:40;;;;;;;26.35;14.70;;;6.50;99.90;;;;;;5048454;28;20181;-61
2021/12/17 14:23:17;;;;;;;25.80;14.02;;;6.50;99.90;;;;;;5051738;28;20197;-61
2021/12/17 14:25:54;;;;;;;26.90;17.10;;;6.50;99.90;;;;;;5062014;28;20189;-61
2021/12/17 14:28:26;;;;;;;27.95;15.88;;;6.40;99.90;;;;;;5056983;28;20301;-61
2021/12/17 14:30:59;;;;;;;25.17;14.55;;;6.50;99.90;;;;;;5058220;28;20266;-61
2021/12/17 14:33:34;;;;;;;25.88;15.40;;;6.50;99.90;;;;;;5058889;28;20175;-61
2021/12/17 14:36:04;;;;;;;25.17;15.13;;;6.50;99.90;;;;;;5052657;28;21043;-61
2021/12/17 14:38:40;;;;;;;25.42;15.82;;;6.50;99.90;;;;;;5056982;28;20182;-61
2021/12/17 14:41:10;;;;;;;32.35;16.15;;;6.60;99.90;;;;;;5057010;28;20186;-61
2021/12/17 14:44:10;;;;;;;24.40;15.27;;;6.50;99.90;;;;;;5054943;28;20185;-61
2021/12/17 14:46:51;;;;;;;25.25;15.55;;;6.50;99.90;;;;;;5042510;28;20213;-61
2021/12/17 14:57:13;;;;;;;30.70;17.40;;;6.50;99.90;;;;;;5053238;28;20583;-60
2021/12/17 15:06:02;;;;;;;21.77;13.82;;;6.50;99.90;;;;;;5050156;28;20269;-61
2021/12/17 15:08:30;;;;;;;22.83;13.50;;;6.50;99.90;;;;;;5043452;28;20292;-59
2021/12/17 15:10:56;;;;;;;23.48;14.18;;;6.50;99.90;;;;;;5052577;28;20189;-61
2021/12/17 15:13:22;;;;;;;23.77;13.65;;;6.50;99.90;;;;;;5050443;28;20603;-61
2021/12/17 15:15:48;;;;;;;19.97;12.97;;;6.50;99.90;;;;;;5047344;28;20178;-61
2021/12/17 15:18:19;;;;;;;20.67;12.13;;;6.50;99.90;;;;;;5043078;28;20436;-60
2021/12/17 15:20:46;;;;;;;21.50;12.73;;;6.60;99.90;;;;;;5038950;28;20178;-59
2021/12/17 15:23:13;;;;;;;17.67;11.65;;;6.60;99.90;;;;;;5043553;28;20188;-60
2021/12/17 15:25:39;;;;;;;19.98;11.90;;;6.60;99.90;;;;;;5045596;28;20292;-60
2021/12/17 15:28:07;;;;;;;22.15;12.93;;;6.60;99.90;;;;;;5041558;28;20299;-60
2021/12/17 15:30:36;;;;;;;21.67;13.15;;;6.70;99.90;;;;;;5044992;28;20281;-60
2021/12/17 15:33:02;;;;;;;20.88;11.98;;;6.60;99.90;;;;;;5047539;28;20349;-60
2021/12/17 15:35:29;;;;;;;21.10;13.40;;;6.60;99.90;;;;;;5048103;28;20182;-60
2021/12/17 15:37:56;;;;;;;21.10;13.83;;;6.70;99.90;;;;;;5058299;28;20526;-59
2021/12/17 15:40:24;;;;;;;22.13;13.50;;;6.70;99.90;;;;;;5042478;28;20938;-59
2021/12/17 15:42:52;;;;;;;20.92;13.48;;;6.70;99.90;;;;;;5044728;28;20433;-62
2021/12/17 15:45:18;;;;;;;19.92;13.70;;;6.70;99.90;;;;;;5038461;28;20992;-60
2021/12/17 15:47:44;;;;;;;22.60;14.57;;;6.70;99.90;;;;;;5046378;28;20281;-56
2021/12/17 15:50:11;;;;;;;20.37;13.20;;;6.70;99.90;;;;;;5056746;28;20839;-61
2021/12/17 15:52:47;;;;;;;21.37;12.70;;;6.80;99.90;;;;;;5080576;28;20196;-61
2021/12/17 15:55:19;;;;;;;22.40;13.55;;;6.80;99.90;;;;;;5058938;28;20424;-64
2021/12/17 15:57:45;;;;;;;25.23;14.70;;;6.70;99.90;;;;;;5066706;28;20211;-62